Saint Rose, Illinois
Current Conditions -  °F | °C
As of 1:58 PM on Sunday 23 Nov 2014 (Local Time) from KBLV Reporting Station
Light Rain Light Rain  
Wind Chill: 53°   Ceiling: 400
Heat Index: 53°   Visibility: 3mi
Dew Point: 53°   Wind: 6mph
Humidity: 100%   Direction: 100°E
Pressure: 29.43"   Gusts: NA
Location:  38.6297°N, 89.5228°W
Report Text: KBLV 231958Z AUTO 10005KT 3SM -RA BR OVC004 12/12 A2943 RMK AO2 SLP969 P0013 T01180118
Loading
Personal Weather Stations






























Interactive Weather Map New forecast layout! Learn more

10-Day Weather Forecast

Advertisements
Track Severe Weather on mobile